sensor_id;sensor_type;location;lat;lon;timestamp;temperature;humidity
75296;DHT22;64623;44.738;37.804;2023-07-28T00:00:21;8.91;118.99
75296;DHT22;64623;44.738;37.804;2023-07-28T00:01:24;8.85;118.99
75296;DHT22;64623;44.738;37.804;2023-07-28T00:02:28;8.76;118.99
75296;DHT22;64623;44.738;37.804;2023-07-28T00:03:31;8.75;118.99
75296;DHT22;64623;44.738;37.804;2023-07-28T00:04:35;8.88;118.99
75296;DHT22;64623;44.738;37.804;2023-07-28T00:05:38;8.91;118.99
75296;DHT22;64623;44.738;37.804;2023-07-28T00:06:41;8.91;118.99
75296;DHT22;64623;44.738;37.804;2023-07-28T00:07:44;8.91;118.99
75296;DHT22;64623;44.738;37.804;2023-07-28T00:08:47;8.88;118.99
75296;DHT22;64623;44.738;37.804;2023-07-28T00:09:49;8.86;118.99
75296;DHT22;64623;44.738;37.804;2023-07-28T00:10:52;8.87;118.99
75296;DHT22;64623;44.738;37.804;2023-07-28T00:11:59;8.73;118.99
75296;DHT22;64623;44.738;37.804;2023-07-28T00:13:02;8.72;118.99
75296;DHT22;64623;44.738;37.804;2023-07-28T00:14:05;8.73;118.99
75296;DHT22;64623;44.738;37.804;2023-07-28T00:15:08;8.72;118.99
75296;DHT22;64623;44.738;37.804;2023-07-28T00:16:11;8.68;118.99
75296;DHT22;64623;44.738;37.804;2023-07-28T00:17:13;8.67;118.99
75296;DHT22;64623;44.738;37.804;2023-07-28T00:18:16;8.66;118.99
75296;DHT22;64623;44.738;37.804;2023-07-28T00:19:21;8.66;118.99
75296;DHT22;64623;44.738;37.804;2023-07-28T00:20:24;8.64;118.99
75296;DHT22;64623;44.738;37.804;2023-07-28T00:21:27;8.65;118.99
75296;DHT22;64623;44.738;37.804;2023-07-28T00:22:30;8.70;118.99
75296;DHT22;64623;44.738;37.804;2023-07-28T00:23:32;8.66;118.99
75296;DHT22;64623;44.738;37.804;2023-07-28T00:24:35;8.67;118.99
75296;DHT22;64623;44.738;37.804;2023-07-28T00:25:38;8.67;118.99
75296;DHT22;64623;44.738;37.804;2023-07-28T00:26:41;8.70;118.99
75296;DHT22;64623;44.738;37.804;2023-07-28T00:27:46;8.58;118.99
75296;DHT22;64623;44.738;37.804;2023-07-28T00:28:49;8.62;118.99
75296;DHT22;64623;44.738;37.804;2023-07-28T00:29:52;8.62;118.99
75296;DHT22;64623;44.738;37.804;2023-07-28T00:30:55;8.64;118.99
75296;DHT22;64623;44.738;37.804;2023-07-28T00:31:58;8.64;118.99
75296;DHT22;64623;44.738;37.804;2023-07-28T00:33:01;8.67;118.99
75296;DHT22;64623;44.738;37.804;2023-07-28T00:34:05;8.63;118.99
75296;DHT22;64623;44.738;37.804;2023-07-28T00:35:08;8.65;118.99
75296;DHT22;64623;44.738;37.804;2023-07-28T00:36:11;8.70;118.99
75296;DHT22;64623;44.738;37.804;2023-07-28T00:37:14;8.64;118.99
75296;DHT22;64623;44.738;37.804;2023-07-28T00:38:17;8.71;118.99
75296;DHT22;64623;44.738;37.804;2023-07-28T00:39:20;8.68;118.99
75296;DHT22;64623;44.738;37.804;2023-07-28T00:40:23;8.68;118.99
75296;DHT22;64623;44.738;37.804;2023-07-28T00:41:26;8.72;118.99
75296;DHT22;64623;44.738;37.804;2023-07-28T00:42:29;8.72;118.99
75296;DHT22;64623;44.738;37.804;2023-07-28T00:43:32;8.73;118.99
75296;DHT22;64623;44.738;37.804;2023-07-28T00:44:34;8.66;118.99
75296;DHT22;64623;44.738;37.804;2023-07-28T00:45:38;8.64;118.99
75296;DHT22;64623;44.738;37.804;2023-07-28T00:46:41;8.68;118.99
75296;DHT22;64623;44.738;37.804;2023-07-28T00:47:44;8.64;118.99
75296;DHT22;64623;44.738;37.804;2023-07-28T00:48:47;8.67;118.99
75296;DHT22;64623;44.738;37.804;2023-07-28T00:49:50;8.68;118.99
75296;DHT22;64623;44.738;37.804;2023-07-28T00:50:53;8.56;118.99
75296;DHT22;64623;44.738;37.804;2023-07-28T00:51:57;8.62;118.99
75296;DHT22;64623;44.738;37.804;2023-07-28T00:53:00;8.61;118.99
75296;DHT22;64623;44.738;37.804;2023-07-28T00:54:06;8.51;118.99
75296;DHT22;64623;44.738;37.804;2023-07-28T00:55:09;8.53;118.99
75296;DHT22;64623;44.738;37.804;2023-07-28T00:56:12;8.52;118.99
75296;DHT22;64623;44.738;37.804;2023-07-28T00:57:15;8.76;118.99
75296;DHT22;64623;44.738;37.804;2023-07-28T00:58:19;8.83;118.99
75296;DHT22;64623;44.738;37.804;2023-07-28T00:59:22;8.64;118.99
75296;DHT22;64623;44.738;37.804;2023-07-28T01:00:24;8.56;118.99
75296;DHT22;64623;44.738;37.804;2023-07-28T01:01:27;8.68;118.99
75296;DHT22;64623;44.738;37.804;2023-07-28T01:02:30;8.77;118.99
75296;DHT22;64623;44.738;37.804;2023-07-28T01:03:33;8.73;118.99
75296;DHT22;64623;44.738;37.804;2023-07-28T01:04:36;8.38;118.99
75296;DHT22;64623;44.738;37.804;2023-07-28T01:07:14;8.35;118.99
75296;DHT22;64623;44.738;37.804;2023-07-28T01:08:40;8.61;118.99
75296;DHT22;64623;44.738;37.804;2023-07-28T01:10:14;8.43;118.99
75296;DHT22;64623;44.738;37.804;2023-07-28T01:11:14;8.36;118.99
75296;DHT22;64623;44.738;37.804;2023-07-28T01:12:17;8.30;118.99
75296;DHT22;64623;44.738;37.804;2023-07-28T01:13:20;8.74;118.99
75296;DHT22;64623;44.738;37.804;2023-07-28T01:14:23;8.78;118.99
75296;DHT22;64623;44.738;37.804;2023-07-28T01:15:26;8.80;118.99
75296;DHT22;64623;44.738;37.804;2023-07-28T01:16:29;8.45;118.99
75296;DHT22;64623;44.738;37.804;2023-07-28T01:17:32;8.33;118.99
75296;DHT22;64623;44.738;37.804;2023-07-28T01:18:36;8.48;118.99
75296;DHT22;64623;44.738;37.804;2023-07-28T01:19:38;8.52;118.99
75296;DHT22;64623;44.738;37.804;2023-07-28T01:20:42;8.44;118.99
75296;DHT22;64623;44.738;37.804;2023-07-28T01:21:57;8.43;118.99
75296;DHT22;64623;44.738;37.804;2023-07-28T01:23:08;8.52;118.99
75296;DHT22;64623;44.738;37.804;2023-07-28T01:24:46;8.57;118.99
75296;DHT22;64623;44.738;37.804;2023-07-28T01:29:25;8.45;118.99
75296;DHT22;64623;44.738;37.804;2023-07-28T01:30:29;8.46;118.99
75296;DHT22;64623;44.738;37.804;2023-07-28T01:31:32;8.52;118.99
75296;DHT22;64623;44.738;37.804;2023-07-28T01:32:36;8.46;118.99
75296;DHT22;64623;44.738;37.804;2023-07-28T01:33:38;8.48;118.99
75296;DHT22;64623;44.738;37.804;2023-07-28T01:34:41;8.48;118.99
75296;DHT22;64623;44.738;37.804;2023-07-28T01:35:44;8.43;118.99
75296;DHT22;64623;44.738;37.804;2023-07-28T01:36:47;8.45;118.99
75296;DHT22;64623;44.738;37.804;2023-07-28T01:37:50;8.46;118.99
75296;DHT22;64623;44.738;37.804;2023-07-28T01:38:53;8.45;118.99
75296;DHT22;64623;44.738;37.804;2023-07-28T01:39:56;8.46;118.99
75296;DHT22;64623;44.738;37.804;2023-07-28T01:41:00;8.50;118.99
75296;DHT22;64623;44.738;37.804;2023-07-28T01:46:18;8.29;118.99
75296;DHT22;64623;44.738;37.804;2023-07-28T01:47:21;8.30;118.99
75296;DHT22;64623;44.738;37.804;2023-07-28T01:48:26;8.39;118.99
75296;DHT22;64623;44.738;37.804;2023-07-28T01:49:28;8.70;118.99
75296;DHT22;64623;44.738;37.804;2023-07-28T01:50:31;8.64;118.99
75296;DHT22;64623;44.738;37.804;2023-07-28T01:51:34;8.57;118.99
75296;DHT22;64623;44.738;37.804;2023-07-28T01:54:33;8.58;118.99
75296;DHT22;64623;44.738;37.804;2023-07-28T01:55:36;8.56;118.99
75296;DHT22;64623;44.738;37.804;2023-07-28T01:56:39;8.36;118.99
75296;DHT22;64623;44.738;37.804;2023-07-28T01:57:50;8.36;118.99
75296;DHT22;64623;44.738;37.804;2023-07-28T02:00:46;8.34;118.99
75296;DHT22;64623;44.738;37.804;2023-07-28T02:01:49;8.34;118.99
75296;DHT22;64623;44.738;37.804;2023-07-28T02:02:53;8.35;118.99
75296;DHT22;64623;44.738;37.804;2023-07-28T02:03:57;8.37;118.99
75296;DHT22;64623;44.738;37.804;2023-07-28T02:04:59;8.29;118.99
75296;DHT22;64623;44.738;37.804;2023-07-28T02:06:03;8.35;118.99
75296;DHT22;64623;44.738;37.804;2023-07-28T02:07:06;8.32;118.99
75296;DHT22;64623;44.738;37.804;2023-07-28T02:08:09;8.28;118.99
75296;DHT22;64623;44.738;37.804;2023-07-28T02:09:11;8.19;118.99
75296;DHT22;64623;44.738;37.804;2023-07-28T02:10:14;8.24;118.99
75296;DHT22;64623;44.738;37.804;2023-07-28T02:11:17;8.21;118.99
75296;DHT22;64623;44.738;37.804;2023-07-28T02:12:20;8.27;118.99
75296;DHT22;64623;44.738;37.804;2023-07-28T02:13:23;8.20;118.99
75296;DHT22;64623;44.738;37.804;2023-07-28T02:18:43;8.24;118.99
75296;DHT22;64623;44.738;37.804;2023-07-28T02:19:46;8.16;118.99
75296;DHT22;64623;44.738;37.804;2023-07-28T02:20:50;8.17;118.99
75296;DHT22;64623;44.738;37.804;2023-07-28T02:21:52;8.28;118.99
75296;DHT22;64623;44.738;37.804;2023-07-28T02:22:55;8.18;118.99
75296;DHT22;64623;44.738;37.804;2023-07-28T02:23:58;8.20;118.99
75296;DHT22;64623;44.738;37.804;2023-07-28T02:25:01;8.21;118.99
75296;DHT22;64623;44.738;37.804;2023-07-28T02:26:07;8.19;118.99
75296;DHT22;64623;44.738;37.804;2023-07-28T02:27:10;8.22;118.99
75296;DHT22;64623;44.738;37.804;2023-07-28T02:28:13;8.17;118.99
75296;DHT22;64623;44.738;37.804;2023-07-28T02:29:16;8.22;118.99
75296;DHT22;64623;44.738;37.804;2023-07-28T02:30:18;8.20;118.99
75296;DHT22;64623;44.738;37.804;2023-07-28T02:31:21;8.26;118.99
75296;DHT22;64623;44.738;37.804;2023-07-28T02:32:24;8.30;118.99
75296;DHT22;64623;44.738;37.804;2023-07-28T02:33:27;8.21;118.99
75296;DHT22;64623;44.738;37.804;2023-07-28T02:34:32;8.19;118.99
75296;DHT22;64623;44.738;37.804;2023-07-28T02:35:34;8.17;118.99
75296;DHT22;64623;44.738;37.804;2023-07-28T02:36:39;8.27;118.99
75296;DHT22;64623;44.738;37.804;2023-07-28T02:37:43;8.29;118.99
75296;DHT22;64623;44.738;37.804;2023-07-28T02:38:45;8.23;118.99
75296;DHT22;64623;44.738;37.804;2023-07-28T02:39:48;8.29;118.99
75296;DHT22;64623;44.738;37.804;2023-07-28T02:40:51;8.32;118.99
75296;DHT22;64623;44.738;37.804;2023-07-28T02:41:54;8.32;118.99
75296;DHT22;64623;44.738;37.804;2023-07-28T02:42:57;8.38;118.99
75296;DHT22;64623;44.738;37.804;2023-07-28T02:44:01;8.39;118.99
75296;DHT22;64623;44.738;37.804;2023-07-28T02:45:04;8.28;118.99
75296;DHT22;64623;44.738;37.804;2023-07-28T02:46:07;8.31;118.99
75296;DHT22;64623;44.738;37.804;2023-07-28T02:47:10;8.43;118.99
75296;DHT22;64623;44.738;37.804;2023-07-28T02:48:13;8.34;118.99
75296;DHT22;64623;44.738;37.804;2023-07-28T02:49:15;8.45;118.99
75296;DHT22;64623;44.738;37.804;2023-07-28T02:50:18;8.43;118.99
75296;DHT22;64623;44.738;37.804;2023-07-28T02:51:21;8.57;118.99
75296;DHT22;64623;44.738;37.804;2023-07-28T02:52:24;8.53;118.99
75296;DHT22;64623;44.738;37.804;2023-07-28T02:53:26;8.48;118.99
75296;DHT22;64623;44.738;37.804;2023-07-28T02:54:29;8.52;118.99
75296;DHT22;64623;44.738;37.804;2023-07-28T02:55:32;8.48;118.99
75296;DHT22;64623;44.738;37.804;2023-07-28T02:56:35;8.41;118.99
75296;DHT22;64623;44.738;37.804;2023-07-28T02:57:44;8.46;118.99
75296;DHT22;64623;44.738;37.804;2023-07-28T02:58:48;8.48;118.99
75296;DHT22;64623;44.738;37.804;2023-07-28T02:59:51;8.41;118.99
75296;DHT22;64623;44.738;37.804;2023-07-28T03:00:54;8.51;118.99
75296;DHT22;64623;44.738;37.804;2023-07-28T03:02:05;8.47;118.99
75296;DHT22;64623;44.738;37.804;2023-07-28T03:03:09;8.43;118.99
75296;DHT22;64623;44.738;37.804;2023-07-28T03:04:15;8.46;118.99
75296;DHT22;64623;44.738;37.804;2023-07-28T03:05:41;8.49;118.99
75296;DHT22;64623;44.738;37.804;2023-07-28T03:06:58;8.44;118.99
75296;DHT22;64623;44.738;37.804;2023-07-28T03:08:01;8.34;118.99
75296;DHT22;64623;44.738;37.804;2023-07-28T03:09:04;8.30;118.99
75296;DHT22;64623;44.738;37.804;2023-07-28T03:10:15;8.37;118.99
75296;DHT22;64623;44.738;37.804;2023-07-28T03:11:19;8.34;118.99
75296;DHT22;64623;44.738;37.804;2023-07-28T03:12:22;8.35;118.99
75296;DHT22;64623;44.738;37.804;2023-07-28T03:13:25;8.29;118.99
75296;DHT22;64623;44.738;37.804;2023-07-28T03:14:28;8.21;118.99
75296;DHT22;64623;44.738;37.804;2023-07-28T03:15:32;8.26;118.99
75296;DHT22;64623;44.738;37.804;2023-07-28T03:16:34;8.32;118.99
75296;DHT22;64623;44.738;37.804;2023-07-28T03:17:37;8.32;118.99
75296;DHT22;64623;44.738;37.804;2023-07-28T03:18:40;8.32;118.99
75296;DHT22;64623;44.738;37.804;2023-07-28T03:19:43;8.37;118.99
75296;DHT22;64623;44.738;37.804;2023-07-28T03:20:46;8.33;118.99
75296;DHT22;64623;44.738;37.804;2023-07-28T03:21:49;8.44;118.99
75296;DHT22;64623;44.738;37.804;2023-07-28T03:22:52;8.50;118.99
75296;DHT22;64623;44.738;37.804;2023-07-28T03:23:57;8.46;118.99
75296;DHT22;64623;44.738;37.804;2023-07-28T03:25:00;8.49;118.99
75296;DHT22;64623;44.738;37.804;2023-07-28T03:26:04;8.49;118.99
75296;DHT22;64623;44.738;37.804;2023-07-28T03:27:07;8.76;118.99
75296;DHT22;64623;44.738;37.804;2023-07-28T03:28:10;8.67;118.99
75296;DHT22;64623;44.738;37.804;2023-07-28T03:29:15;8.53;118.99
75296;DHT22;64623;44.738;37.804;2023-07-28T03:30:20;8.51;118.99
75296;DHT22;64623;44.738;37.804;2023-07-28T03:31:23;8.60;118.99
75296;DHT22;64623;44.738;37.804;2023-07-28T03:32:26;8.59;118.99
75296;DHT22;64623;44.738;37.804;2023-07-28T03:33:29;8.52;118.99
75296;DHT22;64623;44.738;37.804;2023-07-28T03:34:32;8.59;118.99
75296;DHT22;64623;44.738;37.804;2023-07-28T03:35:37;8.61;118.99
75296;DHT22;64623;44.738;37.804;2023-07-28T03:36:43;8.68;118.99
75296;DHT22;64623;44.738;37.804;2023-07-28T03:37:46;8.67;118.99
75296;DHT22;64623;44.738;37.804;2023-07-28T03:38:49;8.64;118.99
75296;DHT22;64623;44.738;37.804;2023-07-28T03:39:52;8.67;118.99
75296;DHT22;64623;44.738;37.804;2023-07-28T03:40:59;8.67;118.99
75296;DHT22;64623;44.738;37.804;2023-07-28T03:42:02;8.78;118.99
75296;DHT22;64623;44.738;37.804;2023-07-28T03:43:05;8.79;118.99
75296;DHT22;64623;44.738;37.804;2023-07-28T03:44:09;8.85;118.99
75296;DHT22;64623;44.738;37.804;2023-07-28T03:45:11;8.90;118.99
75296;DHT22;64623;44.738;37.804;2023-07-28T03:46:14;8.85;118.99
75296;DHT22;64623;44.738;37.804;2023-07-28T03:47:17;8.97;118.99
75296;DHT22;64623;44.738;37.804;2023-07-28T03:48:20;8.98;118.99
75296;DHT22;64623;44.738;37.804;2023-07-28T03:49:23;8.96;118.99
75296;DHT22;64623;44.738;37.804;2023-07-28T03:50:26;8.92;118.99
75296;DHT22;64623;44.738;37.804;2023-07-28T03:51:30;8.88;118.99
75296;DHT22;64623;44.738;37.804;2023-07-28T03:52:33;9.03;118.99
75296;DHT22;64623;44.738;37.804;2023-07-28T03:53:36;8.96;118.99
75296;DHT22;64623;44.738;37.804;2023-07-28T03:54:38;8.92;118.99
75296;DHT22;64623;44.738;37.804;2023-07-28T03:55:41;9.02;118.99
75296;DHT22;64623;44.738;37.804;2023-07-28T03:56:44;9.03;118.99
75296;DHT22;64623;44.738;37.804;2023-07-28T03:57:47;8.98;118.99
75296;DHT22;64623;44.738;37.804;2023-07-28T03:58:50;9.01;118.99
75296;DHT22;64623;44.738;37.804;2023-07-28T03:59:53;8.93;118.99
75296;DHT22;64623;44.738;37.804;2023-07-28T04:00:55;9.34;118.99
75296;DHT22;64623;44.738;37.804;2023-07-28T04:01:58;9.31;118.99
75296;DHT22;64623;44.738;37.804;2023-07-28T04:03:01;9.23;118.99
75296;DHT22;64623;44.738;37.804;2023-07-28T04:04:04;9.29;118.99
75296;DHT22;64623;44.738;37.804;2023-07-28T04:05:08;9.32;118.99
75296;DHT22;64623;44.738;37.804;2023-07-28T04:06:11;9.14;118.99
75296;DHT22;64623;44.738;37.804;2023-07-28T04:07:14;8.97;118.99
75296;DHT22;64623;44.738;37.804;2023-07-28T04:08:18;9.05;118.99
75296;DHT22;64623;44.738;37.804;2023-07-28T04:09:21;8.94;118.99
75296;DHT22;64623;44.738;37.804;2023-07-28T04:10:23;8.67;118.99
75296;DHT22;64623;44.738;37.804;2023-07-28T04:11:26;8.56;118.99
75296;DHT22;64623;44.738;37.804;2023-07-28T04:12:29;8.55;118.99
75296;DHT22;64623;44.738;37.804;2023-07-28T04:13:33;8.49;118.99
75296;DHT22;64623;44.738;37.804;2023-07-28T04:14:36;8.48;118.99
75296;DHT22;64623;44.738;37.804;2023-07-28T04:15:39;8.46;118.99
75296;DHT22;64623;44.738;37.804;2023-07-28T04:16:42;8.36;118.99
75296;DHT22;64623;44.738;37.804;2023-07-28T04:17:47;8.26;118.99
75296;DHT22;64623;44.738;37.804;2023-07-28T04:18:50;8.26;118.99
75296;DHT22;64623;44.738;37.804;2023-07-28T04:19:53;8.21;118.99
75296;DHT22;64623;44.738;37.804;2023-07-28T04:20:56;8.30;118.99
75296;DHT22;64623;44.738;37.804;2023-07-28T04:22:00;8.23;118.99
75296;DHT22;64623;44.738;37.804;2023-07-28T04:23:05;8.27;118.99
75296;DHT22;64623;44.738;37.804;2023-07-28T04:24:11;8.24;118.99
75296;DHT22;64623;44.738;37.804;2023-07-28T04:25:19;8.26;118.99
75296;DHT22;64623;44.738;37.804;2023-07-28T04:26:24;8.31;118.99
75296;DHT22;64623;44.738;37.804;2023-07-28T04:27:33;8.33;118.99
75296;DHT22;64623;44.738;37.804;2023-07-28T04:28:38;8.34;118.99
75296;DHT22;64623;44.738;37.804;2023-07-28T04:29:41;8.42;118.99
75296;DHT22;64623;44.738;37.804;2023-07-28T04:30:46;8.37;118.99
75296;DHT22;64623;44.738;37.804;2023-07-28T04:32:09;8.45;118.99
75296;DHT22;64623;44.738;37.804;2023-07-28T04:33:12;8.46;118.99
75296;DHT22;64623;44.738;37.804;2023-07-28T04:34:15;8.49;118.99
75296;DHT22;64623;44.738;37.804;2023-07-28T04:35:37;8.49;118.99
75296;DHT22;64623;44.738;37.804;2023-07-28T04:37:20;8.45;118.99
75296;DHT22;64623;44.738;37.804;2023-07-28T04:38:36;8.50;118.99
75296;DHT22;64623;44.738;37.804;2023-07-28T04:39:40;8.57;118.99
75296;DHT22;64623;44.738;37.804;2023-07-28T04:40:44;8.56;118.99
75296;DHT22;64623;44.738;37.804;2023-07-28T04:41:49;8.56;118.99
75296;DHT22;64623;44.738;37.804;2023-07-28T04:42:52;8.61;118.99
75296;DHT22;64623;44.738;37.804;2023-07-28T04:43:56;8.63;118.99
75296;DHT22;64623;44.738;37.804;2023-07-28T04:45:00;8.61;118.99
75296;DHT22;64623;44.738;37.804;2023-07-28T04:46:04;8.62;118.99
75296;DHT22;64623;44.738;37.804;2023-07-28T04:47:07;8.67;118.99
75296;DHT22;64623;44.738;37.804;2023-07-28T04:48:10;8.71;118.99
75296;DHT22;64623;44.738;37.804;2023-07-28T04:49:13;8.80;118.99
75296;DHT22;64623;44.738;37.804;2023-07-28T04:50:48;8.83;118.99
75296;DHT22;64623;44.738;37.804;2023-07-28T04:51:51;8.81;118.99
75296;DHT22;64623;44.738;37.804;2023-07-28T04:52:57;8.83;118.99
75296;DHT22;64623;44.738;37.804;2023-07-28T04:54:02;8.85;118.99
75296;DHT22;64623;44.738;37.804;2023-07-28T04:55:07;8.87;118.99
75296;DHT22;64623;44.738;37.804;2023-07-28T04:56:10;8.86;118.99
75296;DHT22;64623;44.738;37.804;2023-07-28T04:57:13;8.94;118.99
75296;DHT22;64623;44.738;37.804;2023-07-28T04:58:17;8.98;118.99
75296;DHT22;64623;44.738;37.804;2023-07-28T04:59:23;9.11;118.99
75296;DHT22;64623;44.738;37.804;2023-07-28T05:00:26;9.39;118.99
75296;DHT22;64623;44.738;37.804;2023-07-28T05:01:29;9.20;118.99
75296;DHT22;64623;44.738;37.804;2023-07-28T05:02:32;9.11;118.99
75296;DHT22;64623;44.738;37.804;2023-07-28T05:03:35;9.16;118.99
75296;DHT22;64623;44.738;37.804;2023-07-28T05:04:51;9.15;118.99
75296;DHT22;64623;44.738;37.804;2023-07-28T05:05:54;9.29;118.99
75296;DHT22;64623;44.738;37.804;2023-07-28T05:06:57;9.25;118.99
75296;DHT22;64623;44.738;37.804;2023-07-28T05:08:00;9.18;118.99
75296;DHT22;64623;44.738;37.804;2023-07-28T05:09:03;9.22;118.99
75296;DHT22;64623;44.738;37.804;2023-07-28T05:10:10;9.29;118.99
75296;DHT22;64623;44.738;37.804;2023-07-28T05:11:13;9.26;118.99
75296;DHT22;64623;44.738;37.804;2023-07-28T05:12:16;9.24;118.99
75296;DHT22;64623;44.738;37.804;2023-07-28T05:13:21;9.29;118.99
75296;DHT22;64623;44.738;37.804;2023-07-28T05:14:32;9.24;118.99
75296;DHT22;64623;44.738;37.804;2023-07-28T05:15:35;9.19;118.99
75296;DHT22;64623;44.738;37.804;2023-07-28T05:16:40;9.14;118.99
75296;DHT22;64623;44.738;37.804;2023-07-28T05:17:46;9.05;118.99
75296;DHT22;64623;44.738;37.804;2023-07-28T05:19:18;9.07;118.99
75296;DHT22;64623;44.738;37.804;2023-07-28T05:20:29;9.10;118.99
75296;DHT22;64623;44.738;37.804;2023-07-28T05:23:41;8.92;118.99
75296;DHT22;64623;44.738;37.804;2023-07-28T05:27:01;8.91;118.99
75296;DHT22;64623;44.738;37.804;2023-07-28T05:28:04;8.82;118.99
75296;DHT22;64623;44.738;37.804;2023-07-28T05:29:09;8.85;118.99
75296;DHT22;64623;44.738;37.804;2023-07-28T05:30:12;8.95;118.99
75296;DHT22;64623;44.738;37.804;2023-07-28T05:31:14;8.86;118.99
75296;DHT22;64623;44.738;37.804;2023-07-28T05:32:18;8.83;118.99
75296;DHT22;64623;44.738;37.804;2023-07-28T05:33:43;8.95;118.99
75296;DHT22;64623;44.738;37.804;2023-07-28T05:34:46;8.96;118.99
75296;DHT22;64623;44.738;37.804;2023-07-28T05:36:02;8.91;118.99
75296;DHT22;64623;44.738;37.804;2023-07-28T05:37:07;8.86;118.99
75296;DHT22;64623;44.738;37.804;2023-07-28T05:38:09;8.78;118.99
75296;DHT22;64623;44.738;37.804;2023-07-28T05:39:12;8.74;118.99
75296;DHT22;64623;44.738;37.804;2023-07-28T05:40:18;8.71;118.99
75296;DHT22;64623;44.738;37.804;2023-07-28T05:41:22;8.63;118.99
75296;DHT22;64623;44.738;37.804;2023-07-28T05:42:26;8.63;118.99
75296;DHT22;64623;44.738;37.804;2023-07-28T05:43:30;8.65;118.99
75296;DHT22;64623;44.738;37.804;2023-07-28T05:44:34;8.72;118.99
75296;DHT22;64623;44.738;37.804;2023-07-28T05:45:37;8.65;118.99
75296;DHT22;64623;44.738;37.804;2023-07-28T05:46:40;8.71;118.99
75296;DHT22;64623;44.738;37.804;2023-07-28T05:47:43;8.66;118.99
75296;DHT22;64623;44.738;37.804;2023-07-28T05:48:46;8.61;118.99
75296;DHT22;64623;44.738;37.804;2023-07-28T05:49:49;8.59;118.99
75296;DHT22;64623;44.738;37.804;2023-07-28T05:50:52;8.58;118.99
75296;DHT22;64623;44.738;37.804;2023-07-28T05:51:58;8.58;118.99
75296;DHT22;64623;44.738;37.804;2023-07-28T05:53:00;8.66;118.99
75296;DHT22;64623;44.738;37.804;2023-07-28T05:54:06;8.63;118.99
75296;DHT22;64623;44.738;37.804;2023-07-28T05:55:09;8.63;118.99
75296;DHT22;64623;44.738;37.804;2023-07-28T05:56:12;8.75;118.99
75296;DHT22;64623;44.738;37.804;2023-07-28T05:57:17;8.80;118.99
75296;DHT22;64623;44.738;37.804;2023-07-28T05:58:20;8.74;118.99
75296;DHT22;64623;44.738;37.804;2023-07-28T05:59:23;8.75;118.99
75296;DHT22;64623;44.738;37.804;2023-07-28T06:00:26;8.60;118.99
75296;DHT22;64623;44.738;37.804;2023-07-28T06:01:29;8.49;118.99
75296;DHT22;64623;44.738;37.804;2023-07-28T06:02:52;8.53;118.99
75296;DHT22;64623;44.738;37.804;2023-07-28T06:04:16;8.46;118.99
75296;DHT22;64623;44.738;37.804;2023-07-28T06:05:22;8.56;118.99
75296;DHT22;64623;44.738;37.804;2023-07-28T06:06:25;8.59;118.99
75296;DHT22;64623;44.738;37.804;2023-07-28T06:07:29;8.71;118.99
75296;DHT22;64623;44.738;37.804;2023-07-28T06:08:32;8.74;118.99
75296;DHT22;64623;44.738;37.804;2023-07-28T06:09:35;8.63;118.99
75296;DHT22;64623;44.738;37.804;2023-07-28T06:10:38;8.55;118.99
75296;DHT22;64623;44.738;37.804;2023-07-28T06:11:41;8.55;118.99
75296;DHT22;64623;44.738;37.804;2023-07-28T06:12:44;8.63;118.99
75296;DHT22;64623;44.738;37.804;2023-07-28T06:13:48;8.72;118.99
75296;DHT22;64623;44.738;37.804;2023-07-28T06:14:50;8.82;118.99
75296;DHT22;64623;44.738;37.804;2023-07-28T06:15:54;8.71;118.99
75296;DHT22;64623;44.738;37.804;2023-07-28T06:16:59;8.72;118.99
75296;DHT22;64623;44.738;37.804;2023-07-28T06:18:05;8.75;118.99
75296;DHT22;64623;44.738;37.804;2023-07-28T06:19:08;8.74;118.99
75296;DHT22;64623;44.738;37.804;2023-07-28T06:20:13;8.73;118.99
75296;DHT22;64623;44.738;37.804;2023-07-28T06:21:16;8.82;118.99
75296;DHT22;64623;44.738;37.804;2023-07-28T06:22:18;8.68;118.99
75296;DHT22;64623;44.738;37.804;2023-07-28T06:23:21;8.70;118.99
75296;DHT22;64623;44.738;37.804;2023-07-28T06:24:24;8.70;118.99
75296;DHT22;64623;44.738;37.804;2023-07-28T06:25:27;8.52;118.99
75296;DHT22;64623;44.738;37.804;2023-07-28T06:26:30;8.52;118.99
75296;DHT22;64623;44.738;37.804;2023-07-28T06:27:33;8.45;118.99
75296;DHT22;64623;44.738;37.804;2023-07-28T06:28:35;8.37;118.99
75296;DHT22;64623;44.738;37.804;2023-07-28T06:29:40;8.34;118.99
75296;DHT22;64623;44.738;37.804;2023-07-28T06:30:42;8.24;118.99
75296;DHT22;64623;44.738;37.804;2023-07-28T06:31:45;8.35;118.99
75296;DHT22;64623;44.738;37.804;2023-07-28T06:32:48;8.33;118.99
75296;DHT22;64623;44.738;37.804;2023-07-28T06:33:51;8.15;118.99
75296;DHT22;64623;44.738;37.804;2023-07-28T06:34:54;7.97;118.99
75296;DHT22;64623;44.738;37.804;2023-07-28T06:35:57;7.79;118.99
75296;DHT22;64623;44.738;37.804;2023-07-28T06:37:00;7.64;118.99
75296;DHT22;64623;44.738;37.804;2023-07-28T06:38:03;7.55;118.99
75296;DHT22;64623;44.738;37.804;2023-07-28T06:39:06;7.48;118.99
75296;DHT22;64623;44.738;37.804;2023-07-28T06:40:09;7.34;118.99
75296;DHT22;64623;44.738;37.804;2023-07-28T06:41:12;7.41;118.99
75296;DHT22;64623;44.738;37.804;2023-07-28T06:42:15;7.38;118.99
75296;DHT22;64623;44.738;37.804;2023-07-28T06:43:19;7.38;118.99
75296;DHT22;64623;44.738;37.804;2023-07-28T06:44:22;7.46;118.99
75296;DHT22;64623;44.738;37.804;2023-07-28T06:45:25;7.46;118.99
75296;DHT22;64623;44.738;37.804;2023-07-28T06:46:29;7.43;118.99
75296;DHT22;64623;44.738;37.804;2023-07-28T06:47:32;7.48;118.99
75296;DHT22;64623;44.738;37.804;2023-07-28T06:48:35;7.52;118.99
75296;DHT22;64623;44.738;37.804;2023-07-28T06:49:38;7.52;118.99
75296;DHT22;64623;44.738;37.804;2023-07-28T06:50:41;7.52;118.99
75296;DHT22;64623;44.738;37.804;2023-07-28T06:51:44;7.52;118.99
75296;DHT22;64623;44.738;37.804;2023-07-28T06:52:47;7.54;118.99
75296;DHT22;64623;44.738;37.804;2023-07-28T06:53:55;7.54;118.99
75296;DHT22;64623;44.738;37.804;2023-07-28T06:54:58;7.61;118.99
75296;DHT22;64623;44.738;37.804;2023-07-28T06:56:04;7.58;118.99
75296;DHT22;64623;44.738;37.804;2023-07-28T06:57:06;7.59;118.99
75296;DHT22;64623;44.738;37.804;2023-07-28T06:58:09;7.56;118.99
75296;DHT22;64623;44.738;37.804;2023-07-28T06:59:13;7.69;118.99
75296;DHT22;64623;44.738;37.804;2023-07-28T07:00:17;7.67;118.99
75296;DHT22;64623;44.738;37.804;2023-07-28T07:01:20;7.53;118.99
75296;DHT22;64623;44.738;37.804;2023-07-28T07:02:24;7.39;118.99